createdAt,value
2022-12-27T00:03:05.965Z,202.82353
2022-12-27T00:08:06.900Z,200.66667
2022-12-27T00:13:07.833Z,220.23318
2022-12-27T00:18:08.819Z,212.99563
2022-12-27T00:23:09.783Z,212.99563
2022-12-27T00:28:10.721Z,219.0
2022-12-27T00:33:11.707Z,219.0
2022-12-27T00:38:12.644Z,209.51724
2022-12-27T00:43:13.559Z,210.66667
2022-12-27T00:48:14.555Z,215.36564
2022-12-27T00:53:15.536Z,210.66667
2022-12-27T00:58:16.716Z,205.01695
2022-12-27T01:03:17.716Z,209.51724
2022-12-27T01:08:18.632Z,205.01695
2022-12-27T01:13:19.547Z,203.91561
2022-12-27T01:18:20.538Z,198.54545
2022-12-27T01:23:21.523Z,198.54545
2022-12-27T01:28:22.492Z,200.66667
2022-12-27T01:33:23.474Z,196.45902
2022-12-27T01:38:24.403Z,196.45902
2022-12-27T01:43:25.399Z,194.4065
2022-12-27T01:48:26.398Z,190.4
2022-12-27T01:53:27.412Z,190.4
2022-12-27T01:58:28.329Z,197.49794
2022-12-27T02:03:29.549Z,202.82353
2022-12-27T02:08:30.787Z,205.01695
2022-12-27T02:13:31.686Z,202.82353
2022-12-27T02:18:32.623Z,200.66667
2022-12-27T02:23:39.159Z,196.45902
2022-12-27T02:28:40.723Z,192.3871
2022-12-27T02:33:41.604Z,186.51969
2022-12-27T02:38:42.547Z,186.51969
2022-12-27T02:43:43.434Z,188.44444
2022-12-27T02:48:44.345Z,193.39271
2022-12-27T02:53:45.273Z,197.49794
2022-12-27T02:58:46.209Z,199.60166
2022-12-27T03:03:47.103Z,201.74059
2022-12-27T03:08:48.024Z,200.66667
2022-12-27T03:13:48.915Z,200.66667
2022-12-27T03:18:49.803Z,200.66667
2022-12-27T03:23:50.744Z,195.42857
2022-12-27T03:28:51.670Z,193.39271
2022-12-27T03:33:52.624Z,190.4
2022-12-27T03:38:53.525Z,189.41833
2022-12-27T03:43:54.509Z,184.625
2022-12-27T03:48:55.427Z,185.56863
2022-12-27T03:53:56.336Z,181.83784
2022-12-27T03:58:57.282Z,186.51969
2022-12-27T04:03:58.773Z,192.3871
2022-12-27T04:08:59.816Z,189.41833
2022-12-27T04:14:00.755Z,187.47826
2022-12-27T04:19:01.892Z,190.4
2022-12-27T04:24:02.843Z,195.42857
2022-12-27T04:29:03.773Z,193.39271
2022-12-27T04:34:04.691Z,189.41833
2022-12-27T04:39:05.823Z,189.41833
2022-12-27T04:44:06.738Z,189.41833
2022-12-27T04:49:07.645Z,189.41833
2022-12-27T04:54:08.595Z,192.3871
2022-12-27T04:59:09.530Z,191.38956
2022-12-27T05:04:10.439Z,185.56863
2022-12-27T05:09:11.402Z,185.56863
2022-12-27T05:14:12.294Z,183.68872
2022-12-27T05:19:13.216Z,179.1145
2022-12-27T05:24:14.166Z,182.75969
2022-12-27T05:29:15.141Z,183.68872
2022-12-27T05:34:16.316Z,184.625
2022-12-27T05:39:17.613Z,180.92308
2022-12-27T05:44:18.528Z,172.99628
2022-12-27T05:49:19.466Z,177.33333
2022-12-27T05:54:20.365Z,182.75969
2022-12-27T05:59:21.336Z,186.51969
2022-12-27T06:04:22.299Z,181.83784
2022-12-27T06:09:23.200Z,180.92308
2022-12-27T06:14:24.141Z,187.47826
2022-12-27T06:19:25.091Z,187.47826
2022-12-27T06:24:26.108Z,187.47826
2022-12-27T06:29:27.105Z,187.47826
2022-12-27T06:34:28.034Z,187.47826
2022-12-27T06:39:29.027Z,188.44444
2022-12-27T06:44:29.975Z,188.44444
2022-12-27T06:49:30.910Z,188.44444
2022-12-27T06:54:31.839Z,187.47826
2022-12-27T06:59:32.870Z,184.625
2022-12-27T07:04:33.799Z,187.47826
2022-12-27T07:09:34.735Z,193.39271
2022-12-27T07:14:35.737Z,194.4065
2022-12-27T07:19:36.669Z,194.4065
2022-12-27T07:24:37.621Z,193.39271
2022-12-27T07:29:45.086Z,195.42857
2022-12-27T07:34:46.723Z,191.38956
2022-12-27T07:39:47.668Z,191.38956
2022-12-27T07:44:48.569Z,187.47826
2022-12-27T07:49:49.544Z,186.51969
2022-12-27T07:54:50.485Z,188.44444
2022-12-27T07:59:51.436Z,180.92308
2022-12-27T08:04:52.336Z,185.56863
2022-12-27T08:09:53.356Z,185.56863
2022-12-27T08:14:54.302Z,183.68872
2022-12-27T08:19:55.352Z,186.51969
2022-12-27T08:24:56.300Z,184.625
2022-12-27T08:29:57.211Z,180.92308
2022-12-27T08:35:11.995Z,182.75969
2022-12-27T08:40:25.961Z,180.92308
2022-12-27T08:45:26.898Z,180.92308
2022-12-27T08:50:27.837Z,180.01533
2022-12-27T08:55:28.751Z,177.33333
2022-12-27T09:00:29.697Z,180.01533
2022-12-27T09:05:30.623Z,180.01533
2022-12-27T09:10:31.546Z,182.75969
2022-12-27T09:15:32.522Z,188.44444
2022-12-27T09:20:33.507Z,188.44444
2022-12-27T09:25:34.483Z,189.41833
2022-12-27T09:30:35.458Z,180.92308
2022-12-27T09:35:38.604Z,177.33333
2022-12-27T09:40:39.839Z,176.45283
2022-12-27T09:45:40.803Z,178.22053
2022-12-27T09:50:41.715Z,181.83784
2022-12-27T09:55:42.615Z,182.75969
2022-12-27T10:00:46.356Z,185.56863
2022-12-27T10:05:50.874Z,186.51969
2022-12-27T10:10:55.668Z,188.44444
2022-12-27T10:15:56.639Z,188.44444
2022-12-27T10:20:57.614Z,191.38956
2022-12-27T10:25:58.645Z,187.47826
2022-12-27T10:30:59.668Z,180.92308
2022-12-27T10:36:00.600Z,183.68872
2022-12-27T10:41:01.661Z,189.41833
2022-12-27T10:46:03.687Z,185.56863
2022-12-27T10:51:04.599Z,185.56863
2022-12-27T10:56:05.528Z,183.68872
2022-12-27T11:01:06.500Z,182.75969
2022-12-27T11:06:08.277Z,182.75969
2022-12-27T11:11:09.181Z,182.75969
2022-12-27T11:16:10.098Z,188.44444
2022-12-27T11:21:20.081Z,187.47826
2022-12-27T11:26:25.033Z,197.49794
2022-12-27T11:31:26.038Z,197.49794
2022-12-27T11:36:26.968Z,196.45902
2022-12-27T11:41:28.243Z,187.47826
2022-12-27T11:46:29.267Z,190.4
2022-12-27T11:51:30.282Z,190.4
2022-12-27T11:56:31.212Z,191.38956
2022-12-27T12:01:32.202Z,199.60166
2022-12-27T12:06:34.760Z,200.66667
2022-12-27T12:11:35.741Z,196.45902
2022-12-27T12:16:36.723Z,200.66667
2022-12-27T12:21:37.732Z,198.54545
2022-12-27T12:26:38.680Z,202.82353
2022-12-27T12:31:39.674Z,198.54545
2022-12-27T12:36:40.730Z,189.41833
2022-12-27T12:41:41.641Z,191.38956
2022-12-27T12:46:42.566Z,191.38956
2022-12-27T12:51:43.527Z,197.49794
2022-12-27T12:56:44.517Z,196.45902
2022-12-27T13:01:50.759Z,187.47826
2022-12-27T13:06:52.140Z,181.83784
2022-12-27T13:11:53.082Z,176.45283
2022-12-27T13:16:54.071Z,183.68872
2022-12-27T13:21:55.063Z,185.56863
2022-12-27T13:26:56.044Z,183.68872
2022-12-27T13:31:56.996Z,185.56863
2022-12-27T13:36:58.017Z,195.42857
2022-12-27T13:41:59.101Z,199.60166
2022-12-27T13:47:00.051Z,194.4065
2022-12-27T13:52:01.063Z,185.56863
2022-12-27T13:57:01.980Z,185.56863
2022-12-27T14:02:03.278Z,185.56863
2022-12-27T14:07:04.425Z,187.47826
2022-12-27T14:12:05.360Z,189.41833
2022-12-27T14:17:06.255Z,184.625
2022-12-27T14:22:07.163Z,180.01533
2022-12-27T14:27:08.138Z,185.56863
2022-12-27T14:32:09.161Z,185.56863
2022-12-27T14:37:10.169Z,188.44444
2022-12-27T14:42:11.111Z,189.41833
2022-12-27T14:47:12.030Z,186.51969
2022-12-27T14:52:13.097Z,184.625
2022-12-27T14:57:14.141Z,185.56863
2022-12-27T15:02:15.286Z,183.68872
2022-12-27T15:07:16.340Z,181.83784
2022-12-27T15:12:17.449Z,178.22053
2022-12-27T15:17:18.376Z,177.33333
2022-12-27T15:22:19.292Z,176.45283
2022-12-27T15:27:20.376Z,173.85075
2022-12-27T15:32:21.407Z,171.30627
2022-12-27T15:37:22.451Z,171.30627
2022-12-27T15:42:23.453Z,168.0
2022-12-27T15:47:24.360Z,164.0
2022-12-27T15:52:25.263Z,163.21708
2022-12-27T15:57:26.175Z,159.38462
2022-12-27T16:02:27.435Z,159.38462
2022-12-27T16:07:28.392Z,158.63415
2022-12-27T16:12:29.291Z,158.63415
2022-12-27T16:17:30.165Z,159.38462
2022-12-27T16:22:31.147Z,164.78853
2022-12-27T16:27:32.124Z,164.0
2022-12-27T16:32:33.048Z,164.78853
2022-12-27T16:37:34.005Z,164.0
2022-12-27T16:42:34.932Z,160.90141
2022-12-27T16:47:35.843Z,160.14035
2022-12-27T16:52:36.763Z,160.90141
2022-12-27T16:57:37.726Z,162.43972
2022-12-27T17:02:38.771Z,160.14035
2022-12-27T17:07:39.819Z,160.14035
2022-12-27T17:12:40.759Z,161.66784
2022-12-27T17:17:41.694Z,160.14035
2022-12-27T17:22:42.635Z,159.38462
2022-12-27T17:27:43.558Z,158.63415
2022-12-27T17:32:44.519Z,157.88889
2022-12-27T17:37:45.445Z,157.14879
2022-12-27T17:42:46.393Z,156.41379
2022-12-27T17:47:47.367Z,156.41379
2022-12-27T17:52:48.262Z,156.41379
2022-12-27T17:57:49.181Z,160.90141
2022-12-27T18:02:50.118Z,160.90141
2022-12-27T18:07:51.041Z,166.38267
2022-12-27T18:12:51.964Z,168.0
2022-12-27T18:17:52.896Z,164.78853
2022-12-27T18:22:53.847Z,164.0
2022-12-27T18:27:54.813Z,165.58273
2022-12-27T18:32:55.827Z,165.58273
2022-12-27T18:37:56.774Z,164.78853
2022-12-27T18:42:57.700Z,165.58273
2022-12-27T18:47:58.624Z,165.58273
2022-12-27T18:52:59.536Z,164.0
2022-12-27T18:58:00.451Z,165.58273
2022-12-27T19:03:01.403Z,166.38267
2022-12-27T19:08:02.371Z,166.38267
2022-12-27T19:13:03.347Z,166.38267
2022-12-27T19:18:04.332Z,164.0
2022-12-27T19:23:05.289Z,163.21708
2022-12-27T19:28:06.230Z,162.43972
2022-12-27T19:33:07.237Z,158.63415
2022-12-27T19:38:08.166Z,157.88889
2022-12-27T19:43:09.143Z,158.63415
2022-12-27T19:48:10.152Z,158.63415
2022-12-27T19:53:11.073Z,160.14035
2022-12-27T19:58:12.026Z,159.38462
2022-12-27T20:03:13.006Z,160.14035
2022-12-27T20:08:13.934Z,156.41379
2022-12-27T20:13:15.118Z,155.68385
2022-12-27T20:18:16.159Z,157.14879
2022-12-27T20:23:17.399Z,158.63415
2022-12-27T20:28:18.640Z,162.43972
2022-12-27T20:33:19.541Z,161.66784
2022-12-27T20:38:20.460Z,158.63415
2022-12-27T20:43:21.383Z,154.9589
2022-12-27T20:48:22.353Z,150.02007
2022-12-27T20:53:23.267Z,147.97351
2022-12-27T20:58:24.169Z,147.30033
2022-12-27T21:03:25.190Z,150.02007
2022-12-27T21:08:26.135Z,152.81356
2022-12-27T21:13:27.089Z,153.52381
2022-12-27T21:18:27.983Z,150.02007
2022-12-27T21:23:28.904Z,148.65116
2022-12-27T21:28:29.835Z,147.30033
2022-12-27T21:33:30.825Z,146.63158
2022-12-27T21:38:31.761Z,146.63158
2022-12-27T21:43:32.684Z,147.97351
2022-12-27T21:48:33.685Z,147.97351
2022-12-27T21:53:34.631Z,147.30033
2022-12-27T21:58:35.548Z,147.97351
2022-12-27T22:03:36.837Z,147.30033
2022-12-27T22:08:37.940Z,147.97351
2022-12-27T22:13:38.908Z,147.97351
2022-12-27T22:18:39.881Z,147.97351
2022-12-27T22:23:40.804Z,145.96721
2022-12-27T22:28:41.775Z,146.63158
2022-12-27T22:33:42.717Z,147.30033
2022-12-27T22:38:49.151Z,147.30033
2022-12-27T22:43:50.514Z,150.71141
2022-12-27T22:48:51.442Z,151.40741
2022-12-27T22:53:52.369Z,150.71141
2022-12-27T22:58:53.302Z,148.65116
2022-12-27T23:03:54.231Z,148.65116
2022-12-27T23:08:55.158Z,148.65116
2022-12-27T23:13:56.208Z,148.65116
2022-12-27T23:18:57.100Z,150.71141
2022-12-27T23:23:58.020Z,151.40741
2022-12-27T23:28:59.068Z,152.81356
2022-12-27T23:34:00.006Z,155.68385
2022-12-27T23:39:00.941Z,156.41379
2022-12-27T23:44:01.910Z,157.88889
2022-12-27T23:49:03.165Z,157.88889
2022-12-27T23:54:04.147Z,157.88889
2022-12-27T23:59:05.102Z,159.38462
